createdAt,value
2023-03-26T00:01:55.724Z,60.65
2023-03-26T00:04:25.680Z,60.71
2023-03-26T00:06:54.419Z,60.80
2023-03-26T00:09:22.411Z,61.73
2023-03-26T00:11:50.421Z,62.40
2023-03-26T00:14:18.283Z,62.88
2023-03-26T00:16:47.857Z,63.35
2023-03-26T00:19:17.164Z,63.75
2023-03-26T00:21:45.051Z,63.57
2023-03-26T00:24:15.547Z,64.55
2023-03-26T00:26:43.812Z,65.32
2023-03-26T00:29:14.014Z,65.36
2023-03-26T00:31:46.659Z,65.47
2023-03-26T00:34:18.757Z,65.35
2023-03-26T00:36:47.333Z,64.54
2023-03-26T00:39:15.504Z,65.01
2023-03-26T00:41:44.729Z,64.88
2023-03-26T00:44:12.717Z,65.45
2023-03-26T00:46:40.973Z,65.01
2023-03-26T00:49:11.186Z,63.99
2023-03-26T00:51:39.622Z,65.16
2023-03-26T00:54:08.804Z,65.19
2023-03-26T00:56:37.198Z,63.96
2023-03-26T00:59:05.189Z,62.76
2023-03-26T01:01:33.253Z,62.63
2023-03-26T01:04:21.308Z,62.12
2023-03-26T01:06:49.350Z,61.00
2023-03-26T01:09:22.366Z,61.37
2023-03-26T01:11:50.461Z,61.02
2023-03-26T01:14:24.070Z,61.73
2023-03-26T01:16:58.495Z,60.92
2023-03-26T01:19:26.204Z,60.96
2023-03-26T01:21:53.985Z,61.79
2023-03-26T01:24:22.366Z,61.02
2023-03-26T01:27:17.949Z,61.30
2023-03-26T01:30:11.509Z,61.55
2023-03-26T01:33:14.618Z,62.41
2023-03-26T01:35:46.360Z,63.04
2023-03-26T01:38:33.262Z,63.20
2023-03-26T01:41:09.828Z,63.18
2023-03-26T01:43:43.028Z,64.21
2023-03-26T01:46:12.346Z,63.63
2023-03-26T01:48:43.111Z,63.10
2023-03-26T01:51:13.360Z,62.50
2023-03-26T01:53:45.275Z,64.15
2023-03-26T01:56:31.668Z,63.94
2023-03-26T01:59:30.084Z,64.00
2023-03-26T02:02:15.223Z,65.32
2023-03-26T02:05:05.291Z,64.74
2023-03-26T02:07:38.402Z,64.34
2023-03-26T02:10:16.004Z,64.47
2023-03-26T02:12:45.097Z,64.90
2023-03-26T02:15:13.192Z,65.57
2023-03-26T02:17:41.106Z,66.05
2023-03-26T02:20:14.723Z,66.42
2023-03-26T02:22:46.059Z,66.58
2023-03-26T02:25:19.972Z,66.61
2023-03-26T02:27:50.747Z,64.52
2023-03-26T02:30:26.088Z,64.77
2023-03-26T02:32:59.592Z,64.98
2023-03-26T02:35:34.780Z,64.90
2023-03-26T02:38:04.112Z,64.64
2023-03-26T02:40:31.919Z,64.77
2023-03-26T02:43:00.963Z,65.39
2023-03-26T02:45:31.787Z,65.32
2023-03-26T02:48:05.963Z,65.38
2023-03-26T02:50:54.694Z,65.81
2023-03-26T02:53:44.241Z,65.35
2023-03-26T02:56:41.215Z,64.95
2023-03-26T02:59:32.021Z,64.94
2023-03-26T03:02:20.664Z,65.82
2023-03-26T03:04:48.631Z,66.39
2023-03-26T03:07:16.559Z,65.12
2023-03-26T03:09:44.539Z,66.10
2023-03-26T03:12:47.409Z,65.52
2023-03-26T03:15:15.351Z,66.05
2023-03-26T03:17:43.656Z,66.76
2023-03-26T03:20:11.825Z,66.23
2023-03-26T03:22:41.019Z,64.94
2023-03-26T03:25:09.373Z,64.88
2023-03-26T03:27:39.676Z,64.83
2023-03-26T03:30:13.761Z,64.75
2023-03-26T03:32:47.756Z,64.73
2023-03-26T03:35:20.670Z,64.00
2023-03-26T03:37:52.544Z,64.76
2023-03-26T03:40:20.408Z,66.07
2023-03-26T03:42:48.387Z,65.84
2023-03-26T03:45:24.336Z,65.17
2023-03-26T03:48:08.028Z,65.28
2023-03-26T03:50:45.479Z,66.46
2023-03-26T03:53:26.384Z,67.08
2023-03-26T03:55:56.996Z,66.63
2023-03-26T03:58:35.052Z,66.99
2023-03-26T04:01:13.750Z,67.13
2023-03-26T04:03:56.140Z,67.13
2023-03-26T04:06:30.532Z,66.32
2023-03-26T04:08:58.433Z,66.38
2023-03-26T04:11:26.872Z,65.98
2023-03-26T04:14:17.928Z,66.79
2023-03-26T04:16:57.849Z,66.81
2023-03-26T04:19:28.453Z,66.66
2023-03-26T04:21:56.397Z,66.43
2023-03-26T04:24:24.958Z,67.21
2023-03-26T04:27:27.459Z,67.37
2023-03-26T04:30:05.629Z,68.28
2023-03-26T04:32:34.864Z,68.54
2023-03-26T04:35:04.322Z,68.01
2023-03-26T04:37:41.383Z,67.91
2023-03-26T04:40:22.152Z,69.09
2023-03-26T04:43:12.863Z,69.58
2023-03-26T04:46:02.463Z,68.80
2023-03-26T04:48:32.872Z,66.31
2023-03-26T04:51:01.555Z,66.69
2023-03-26T04:53:29.486Z,66.56
2023-03-26T04:56:25.093Z,66.04
2023-03-26T04:59:20.296Z,65.55
2023-03-26T05:01:49.368Z,65.14
2023-03-26T05:04:18.740Z,65.54
2023-03-26T05:06:47.378Z,64.99
2023-03-26T05:09:33.414Z,64.69
2023-03-26T05:12:12.640Z,65.53
2023-03-26T05:14:52.457Z,65.43
2023-03-26T05:17:41.735Z,65.32
2023-03-26T05:20:24.283Z,65.02
2023-03-26T05:22:53.172Z,65.09
2023-03-26T05:25:27.825Z,65.47
2023-03-26T05:27:57.063Z,65.62
2023-03-26T05:30:29.443Z,65.88
2023-03-26T05:33:04.618Z,65.04
2023-03-26T05:35:41.919Z,65.17
2023-03-26T05:38:10.993Z,64.68
2023-03-26T05:40:39.101Z,65.04
2023-03-26T05:43:08.537Z,65.48
2023-03-26T05:45:39.477Z,64.90
2023-03-26T05:48:29.546Z,65.75
2023-03-26T05:50:58.899Z,65.50
2023-03-26T05:53:29.359Z,65.81
2023-03-26T05:56:15.939Z,66.56
2023-03-26T05:59:02.595Z,66.75
2023-03-26T06:02:02.766Z,66.65
2023-03-26T06:04:49.366Z,66.14
2023-03-26T06:07:52.458Z,66.97
2023-03-26T06:10:21.095Z,66.65
2023-03-26T06:12:50.110Z,66.24
2023-03-26T06:15:19.072Z,65.72
2023-03-26T06:18:07.221Z,65.11
2023-03-26T06:20:59.135Z,64.67
2023-03-26T06:23:41.145Z,64.45
2023-03-26T06:26:32.702Z,64.42
2023-03-26T06:29:19.257Z,63.89
2023-03-26T06:31:49.985Z,64.29
2023-03-26T06:34:33.725Z,63.72
2023-03-26T06:37:01.698Z,63.70
2023-03-26T06:39:30.886Z,63.46
2023-03-26T06:42:20.997Z,62.13
2023-03-26T06:45:51.874Z,61.51
2023-03-26T06:48:39.822Z,61.63
2023-03-26T06:51:18.866Z,61.38
2023-03-26T06:54:16.905Z,59.43
2023-03-26T06:56:52.404Z,59.30
2023-03-26T06:59:26.378Z,58.49
2023-03-26T07:02:13.038Z,57.72
2023-03-26T07:04:59.657Z,57.59
2023-03-26T07:07:46.793Z,57.81
2023-03-26T07:10:34.029Z,57.65
2023-03-26T07:13:25.521Z,57.18
2023-03-26T07:16:12.360Z,56.81
2023-03-26T07:19:16.020Z,55.75
2023-03-26T07:21:44.401Z,55.07
2023-03-26T07:24:32.636Z,53.50
2023-03-26T07:27:11.215Z,52.77
2023-03-26T07:29:50.819Z,52.15
2023-03-26T07:32:52.163Z,52.08
2023-03-26T07:36:05.202Z,51.94
2023-03-26T07:39:19.389Z,50.85
2023-03-26T07:42:32.907Z,51.09
2023-03-26T07:45:40.072Z,50.36
2023-03-26T07:48:40.997Z,50.33
2023-03-26T07:51:18.939Z,50.00
2023-03-26T07:53:54.378Z,49.84
2023-03-26T07:56:56.541Z,49.77
2023-03-26T07:59:52.808Z,50.11
2023-03-26T08:02:57.854Z,49.46
2023-03-26T08:06:03.892Z,49.85
2023-03-26T08:08:59.603Z,49.38
2023-03-26T08:12:14.183Z,48.73
2023-03-26T08:14:47.916Z,48.62
2023-03-26T08:17:43.044Z,48.46
2023-03-26T08:20:28.507Z,48.57
2023-03-26T08:23:02.596Z,47.91
2023-03-26T08:25:45.805Z,48.36
2023-03-26T08:28:30.874Z,48.20
2023-03-26T08:30:59.078Z,47.98
2023-03-26T08:33:28.292Z,46.76
2023-03-26T08:35:56.502Z,46.68
2023-03-26T08:38:24.501Z,45.90
2023-03-26T08:41:17.307Z,45.75
2023-03-26T08:44:03.643Z,46.54
2023-03-26T08:46:52.697Z,46.52
2023-03-26T08:49:41.643Z,46.50
2023-03-26T08:52:31.324Z,46.98
2023-03-26T08:55:17.806Z,46.72
2023-03-26T08:58:10.744Z,46.59
2023-03-26T09:01:12.530Z,46.10
2023-03-26T09:03:59.176Z,44.96
2023-03-26T09:07:07.371Z,45.44
2023-03-26T09:09:50.968Z,44.88
2023-03-26T09:12:18.830Z,43.74
2023-03-26T09:14:59.082Z,42.45
2023-03-26T09:18:08.382Z,41.76
2023-03-26T09:21:12.693Z,42.62
2023-03-26T09:23:52.939Z,42.63
2023-03-26T09:26:36.273Z,42.34
2023-03-26T09:29:22.802Z,42.33
2023-03-26T09:32:24.029Z,42.04
2023-03-26T09:35:13.094Z,42.33
2023-03-26T09:38:00.875Z,41.50
2023-03-26T09:41:06.386Z,44.08
2023-03-26T09:43:56.361Z,43.39
2023-03-26T09:46:42.363Z,43.01
2023-03-26T09:49:44.540Z,43.53
2023-03-26T09:52:27.597Z,44.06
2023-03-26T09:55:01.774Z,45.09
2023-03-26T09:57:58.706Z,44.76
2023-03-26T10:00:29.810Z,43.57
2023-03-26T10:03:31.828Z,44.97
2023-03-26T10:06:07.277Z,46.13
2023-03-26T10:09:04.395Z,46.59
2023-03-26T10:11:56.913Z,46.57
2023-03-26T10:15:02.411Z,46.13
2023-03-26T10:17:57.697Z,44.36
2023-03-26T10:20:35.718Z,45.35
2023-03-26T10:23:08.067Z,45.39
2023-03-26T10:25:57.240Z,44.75
2023-03-26T10:28:44.243Z,43.66
2023-03-26T10:31:43.006Z,43.12
2023-03-26T10:34:38.168Z,43.14
2023-03-26T10:37:20.619Z,43.75
2023-03-26T10:40:17.771Z,44.34
2023-03-26T10:43:24.435Z,44.50
2023-03-26T10:46:04.142Z,45.30
2023-03-26T10:48:47.879Z,46.10
2023-03-26T10:51:36.702Z,45.04
2023-03-26T10:54:26.449Z,44.25
2023-03-26T10:56:56.557Z,42.27
2023-03-26T10:59:27.960Z,40.79
2023-03-26T11:02:14.413Z,38.89
2023-03-26T11:05:16.661Z,38.21
2023-03-26T11:07:59.501Z,37.12
2023-03-26T11:10:53.776Z,38.72
2023-03-26T11:13:42.546Z,37.51
2023-03-26T11:16:47.556Z,36.41
2023-03-26T11:19:38.783Z,35.95
2023-03-26T11:22:32.478Z,37.84
2023-03-26T11:25:24.129Z,36.69
2023-03-26T11:28:09.503Z,36.96
2023-03-26T11:30:49.378Z,36.48
2023-03-26T11:33:26.267Z,35.21
2023-03-26T11:36:03.041Z,36.13
2023-03-26T11:38:37.607Z,36.13
2023-03-26T11:41:22.963Z,35.60
2023-03-26T11:44:15.978Z,34.50
2023-03-26T11:46:46.936Z,33.73
2023-03-26T11:49:21.149Z,32.54
2023-03-26T11:51:49.375Z,32.67
2023-03-26T11:54:18.208Z,34.42
2023-03-26T11:57:07.210Z,33.99
2023-03-26T11:59:57.611Z,34.59
2023-03-26T12:02:34.369Z,34.88
2023-03-26T12:05:20.606Z,33.51
2023-03-26T12:08:04.671Z,33.98
2023-03-26T12:10:39.412Z,34.84
2023-03-26T12:13:42.375Z,36.96
2023-03-26T12:16:17.420Z,36.33
2023-03-26T12:18:57.702Z,37.48
2023-03-26T12:21:26.114Z,35.28
2023-03-26T12:24:02.743Z,34.54
2023-03-26T12:26:42.236Z,34.80
2023-03-26T12:29:16.680Z,36.32
2023-03-26T12:32:04.222Z,38.10
2023-03-26T12:34:37.666Z,37.60
2023-03-26T12:37:07.963Z,38.35
2023-03-26T12:40:10.665Z,37.78
2023-03-26T12:44:44.825Z,38.73
2023-03-26T12:45:31.196Z,39.18
2023-03-26T12:48:03.793Z,39.26
2023-03-26T12:50:47.951Z,38.94
2023-03-26T12:53:52.925Z,39.63
2023-03-26T12:56:37.178Z,40.13
2023-03-26T12:59:24.008Z,40.20
2023-03-26T13:02:16.232Z,40.44
2023-03-26T13:05:12.218Z,40.40
2023-03-26T13:08:18.836Z,40.78
2023-03-26T13:11:17.454Z,40.57
2023-03-26T13:14:17.804Z,40.98
2023-03-26T13:17:16.787Z,41.95
2023-03-26T13:20:02.722Z,42.59
2023-03-26T13:22:45.197Z,42.88
2023-03-26T13:25:19.428Z,43.90
2023-03-26T13:28:13.694Z,43.70
2023-03-26T13:30:54.135Z,44.13
2023-03-26T13:33:41.200Z,43.82
2023-03-26T13:36:34.086Z,43.79
2023-03-26T13:39:03.775Z,43.93
2023-03-26T13:42:26.941Z,44.23
2023-03-26T13:45:05.314Z,44.14
2023-03-26T13:47:42.821Z,44.25
2023-03-26T13:50:27.774Z,44.61
2023-03-26T13:53:28.895Z,44.36
2023-03-26T13:56:00.915Z,44.47
2023-03-26T13:58:47.665Z,44.36
2023-03-26T14:01:21.987Z,44.90
2023-03-26T14:03:56.094Z,45.72
2023-03-26T14:06:42.531Z,45.90
2023-03-26T14:09:24.793Z,45.61
2023-03-26T14:12:22.262Z,45.67
2023-03-26T14:14:59.308Z,46.10
2023-03-26T14:17:46.829Z,46.17
2023-03-26T14:20:48.641Z,46.16
2023-03-26T14:23:16.605Z,46.17
2023-03-26T14:26:14.464Z,46.59
2023-03-26T14:29:03.575Z,46.59
2023-03-26T14:31:43.970Z,47.34
2023-03-26T14:34:29.256Z,48.79
2023-03-26T14:37:27.562Z,49.77
2023-03-26T14:40:21.595Z,50.55
2023-03-26T14:43:24.506Z,52.63
2023-03-26T14:45:59.757Z,55.39
2023-03-26T14:48:36.923Z,57.23
2023-03-26T14:51:26.513Z,57.23
2023-03-26T14:54:01.257Z,59.15
2023-03-26T14:56:51.277Z,58.51
2023-03-26T14:59:53.251Z,59.83
2023-03-26T15:03:07.757Z,60.99
2023-03-26T15:05:48.377Z,61.86
2023-03-26T15:08:40.941Z,63.46
2023-03-26T15:11:26.461Z,64.46
2023-03-26T15:14:16.125Z,63.05
2023-03-26T15:17:12.813Z,62.68
2023-03-26T15:19:59.173Z,63.15
2023-03-26T15:22:42.159Z,65.35
2023-03-26T15:25:47.228Z,67.87
2023-03-26T15:28:21.039Z,69.17
2023-03-26T15:31:19.696Z,70.73
2023-03-26T15:34:23.496Z,71.12
2023-03-26T15:37:17.396Z,70.00
2023-03-26T15:40:10.068Z,71.11
2023-03-26T15:43:10.514Z,72.31
2023-03-26T15:45:56.756Z,72.83
2023-03-26T15:48:51.120Z,72.43
2023-03-26T15:51:46.871Z,71.91
2023-03-26T15:54:32.125Z,73.79
2023-03-26T15:57:31.987Z,76.25
2023-03-26T16:00:32.131Z,75.58
2023-03-26T16:03:11.941Z,76.31
2023-03-26T16:05:56.457Z,77.86
2023-03-26T16:08:47.288Z,78.13
2023-03-26T16:11:15.624Z,77.69
2023-03-26T16:14:08.578Z,76.57
2023-03-26T16:16:55.705Z,76.26
2023-03-26T16:19:23.480Z,76.33
2023-03-26T16:22:01.857Z,74.73
2023-03-26T16:24:36.310Z,75.98
2023-03-26T16:27:25.527Z,76.48
2023-03-26T16:30:30.673Z,76.93
2023-03-26T16:33:21.339Z,77.85
2023-03-26T16:36:34.770Z,78.13
2023-03-26T16:39:08.775Z,79.13
2023-03-26T16:41:39.425Z,79.45
2023-03-26T16:44:27.845Z,78.08
2023-03-26T16:47:39.099Z,77.96
2023-03-26T16:50:09.566Z,77.44
2023-03-26T16:52:55.096Z,77.31
2023-03-26T16:55:52.094Z,77.17
2023-03-26T16:58:44.746Z,77.26
2023-03-26T17:01:34.432Z,78.43
2023-03-26T17:04:12.980Z,80.03
2023-03-26T17:07:14.035Z,80.71
2023-03-26T17:10:09.112Z,80.07
2023-03-26T17:13:01.868Z,80.15
2023-03-26T17:15:29.998Z,80.01
2023-03-26T17:18:43.117Z,79.30
2023-03-26T17:21:16.712Z,77.78
2023-03-26T17:23:56.638Z,78.70
2023-03-26T17:26:32.791Z,80.42
2023-03-26T17:29:06.348Z,79.54
2023-03-26T17:31:43.862Z,79.10
2023-03-26T17:34:34.136Z,76.90
2023-03-26T17:37:05.563Z,76.68
2023-03-26T17:39:39.641Z,78.05
2023-03-26T17:42:19.705Z,80.19
2023-03-26T17:45:36.411Z,81.82
2023-03-26T17:48:17.046Z,83.44
2023-03-26T17:51:30.053Z,82.06
2023-03-26T17:53:59.392Z,81.52
2023-03-26T17:56:32.643Z,80.23
2023-03-26T17:59:11.534Z,81.12
2023-03-26T18:01:44.441Z,82.19
2023-03-26T18:04:21.901Z,82.04
2023-03-26T18:07:17.645Z,81.57
2023-03-26T18:10:19.562Z,79.92
2023-03-26T18:13:15.928Z,77.63
2023-03-26T18:15:58.041Z,78.43
2023-03-26T18:18:34.925Z,79.05
2023-03-26T18:21:07.438Z,80.98
2023-03-26T18:23:42.759Z,82.11
2023-03-26T18:26:19.529Z,83.00
2023-03-26T18:29:09.128Z,81.52
2023-03-26T18:31:41.822Z,80.55
2023-03-26T18:34:19.675Z,79.49
2023-03-26T18:37:16.766Z,79.92
2023-03-26T18:39:57.841Z,80.45
2023-03-26T18:42:27.645Z,82.55
2023-03-26T18:44:59.926Z,81.50
2023-03-26T18:47:31.776Z,80.17
2023-03-26T18:50:00.558Z,81.34
2023-03-26T18:52:30.629Z,82.34
2023-03-26T18:55:00.144Z,84.17
2023-03-26T18:57:29.420Z,86.93
2023-03-26T19:00:15.865Z,87.69
2023-03-26T19:02:44.790Z,89.68
2023-03-26T19:05:22.049Z,89.96
2023-03-26T19:07:50.498Z,90.79
2023-03-26T19:10:21.650Z,91.26
2023-03-26T19:13:01.759Z,91.25
2023-03-26T19:15:35.634Z,90.18
2023-03-26T19:18:14.691Z,87.69
2023-03-26T19:20:46.339Z,86.47
2023-03-26T19:23:20.451Z,87.18
2023-03-26T19:25:55.126Z,86.58
2023-03-26T19:28:27.529Z,85.42
2023-03-26T19:30:58.542Z,86.29
2023-03-26T19:33:36.824Z,86.71
2023-03-26T19:36:06.662Z,85.47
2023-03-26T19:38:59.208Z,83.97
2023-03-26T19:41:36.053Z,84.63
2023-03-26T19:44:21.168Z,85.93
2023-03-26T19:46:53.929Z,86.31
2023-03-26T19:49:32.411Z,86.71
2023-03-26T19:52:11.436Z,85.85
2023-03-26T19:54:59.940Z,85.02
2023-03-26T19:57:34.904Z,86.46
2023-03-26T20:00:13.689Z,85.80
2023-03-26T20:02:43.888Z,85.86
2023-03-26T20:05:23.317Z,86.82
2023-03-26T20:07:52.425Z,88.26
2023-03-26T20:10:20.645Z,87.67
2023-03-26T20:12:48.639Z,87.31
2023-03-26T20:15:18.921Z,86.99
2023-03-26T20:17:50.353Z,86.82
2023-03-26T20:20:20.406Z,85.93
2023-03-26T20:22:48.445Z,86.47
2023-03-26T20:25:25.232Z,87.30
2023-03-26T20:27:55.834Z,85.96
2023-03-26T20:30:36.942Z,85.88
2023-03-26T20:33:12.867Z,85.11
2023-03-26T20:35:41.910Z,84.89
2023-03-26T20:38:10.537Z,86.32
2023-03-26T20:40:39.519Z,85.40
2023-03-26T20:43:18.723Z,85.32
2023-03-26T20:45:46.771Z,85.63
2023-03-26T20:48:14.919Z,85.36
2023-03-26T20:51:01.600Z,85.22
2023-03-26T20:53:30.707Z,85.77
2023-03-26T20:55:58.788Z,85.86
2023-03-26T20:58:30.986Z,85.94
2023-03-26T21:01:02.334Z,86.28
2023-03-26T21:03:30.673Z,86.55
2023-03-26T21:06:03.000Z,87.42
2023-03-26T21:08:34.510Z,88.18
2023-03-26T21:11:05.027Z,89.13
2023-03-26T21:13:54.563Z,89.24
2023-03-26T21:16:22.747Z,89.03
2023-03-26T21:18:51.843Z,89.68
2023-03-26T21:21:57.715Z,90.71
2023-03-26T21:24:34.042Z,91.31
2023-03-26T21:27:28.648Z,91.53
2023-03-26T21:29:58.331Z,91.68
2023-03-26T21:32:26.636Z,92.33
2023-03-26T21:34:58.983Z,90.79
2023-03-26T21:37:28.011Z,91.20
2023-03-26T21:39:56.193Z,89.83
2023-03-26T21:42:29.469Z,90.09
2023-03-26T21:44:57.722Z,90.42
2023-03-26T21:47:26.029Z,89.86
2023-03-26T21:49:55.035Z,90.09
2023-03-26T21:52:24.095Z,90.24
2023-03-26T21:54:52.512Z,88.39
2023-03-26T21:57:42.644Z,88.13
2023-03-26T22:00:15.337Z,88.83
2023-03-26T22:03:08.769Z,88.88
2023-03-26T22:06:06.230Z,88.99
2023-03-26T22:08:41.603Z,88.16
2023-03-26T22:11:11.686Z,87.83
2023-03-26T22:13:39.649Z,88.33
2023-03-26T22:16:10.874Z,88.90
2023-03-26T22:18:38.818Z,89.24
2023-03-26T22:21:07.310Z,89.63
2023-03-26T22:23:36.694Z,89.85
2023-03-26T22:26:06.122Z,91.14
2023-03-26T22:28:34.318Z,91.67
2023-03-26T22:31:07.487Z,90.94
2023-03-26T22:33:36.309Z,90.34
2023-03-26T22:36:04.379Z,90.11
2023-03-26T22:38:32.304Z,90.38
2023-03-26T22:41:00.189Z,89.88
2023-03-26T22:43:28.454Z,89.53
2023-03-26T22:45:56.572Z,89.33
2023-03-26T22:48:24.627Z,89.76
2023-03-26T22:51:19.268Z,89.57
2023-03-26T22:53:47.572Z,89.87
2023-03-26T22:56:16.033Z,90.02
2023-03-26T22:58:43.955Z,90.39
2023-03-26T23:01:13.922Z,89.21
2023-03-26T23:03:41.847Z,89.60
2023-03-26T23:06:12.354Z,89.04
2023-03-26T23:08:40.683Z,88.43
2023-03-26T23:11:09.745Z,88.91
2023-03-26T23:13:37.611Z,89.33
2023-03-26T23:16:06.594Z,87.35
2023-03-26T23:18:34.633Z,86.27
2023-03-26T23:21:02.967Z,86.37
2023-03-26T23:23:34.000Z,86.04
2023-03-26T23:26:04.789Z,85.59
2023-03-26T23:28:34.175Z,84.81
2023-03-26T23:31:05.111Z,85.02
2023-03-26T23:33:35.655Z,85.12
2023-03-26T23:36:09.523Z,85.84
2023-03-26T23:38:44.115Z,86.67
2023-03-26T23:41:16.518Z,86.09
2023-03-26T23:43:54.145Z,85.46
2023-03-26T23:46:31.052Z,85.16
2023-03-26T23:49:03.628Z,84.40
2023-03-26T23:51:32.478Z,82.91
2023-03-26T23:54:01.090Z,82.90
2023-03-26T23:56:32.842Z,82.80
2023-03-26T23:59:00.997Z,83.03
